Terminal Aerodrome Forecast
Issued by NWS

Home | Current Version | Previous Version | Text Only | Print | Product List | Glossary On
Versions: 1 2 3 4 5 6 7 8 9 10 11 12 13 14 15 16 17 18 19 20 21 22 23 24 25 26 27 28 29 30 31 32
000
FTUS41 KBOX 270545
TAFACK
TAF
KACK 270545Z 2706/2806 34025G32KT 3SM -RA BR OVC005
     FM270900 33016G28KT P6SM OVC008
     FM271100 32015KT P6SM OVC012
     FM271900 31009KT P6SM BKN025
     FM280400 31005KT P6SM BKN025=

USA.gov is the U.S. government's official web portal to all federal, state and local government web resources and services.